createdAt,value
2022-12-29T00:01:44.725Z,4.15
2022-12-29T00:04:15.788Z,4.03
2022-12-29T00:06:44.394Z,4.05
2022-12-29T00:09:13.948Z,3.30
2022-12-29T00:11:45.063Z,3.55
2022-12-29T00:14:32.666Z,3.80
2022-12-29T00:17:00.541Z,4.00
2022-12-29T00:19:50.332Z,3.40
2022-12-29T00:22:36.607Z,4.45
2022-12-29T00:25:25.636Z,3.85
2022-12-29T00:28:12.181Z,4.03
2022-12-29T00:31:03.005Z,4.47
2022-12-29T00:33:51.968Z,3.70
2022-12-29T00:36:42.125Z,3.10
2022-12-29T00:39:36.131Z,3.78
2022-12-29T00:42:28.289Z,4.25
2022-12-29T00:44:56.233Z,3.75
2022-12-29T00:47:27.671Z,4.40
2022-12-29T00:49:55.510Z,3.00
2022-12-29T00:52:23.522Z,2.65
2022-12-29T00:54:51.769Z,3.80
2022-12-29T00:57:19.925Z,3.00
2022-12-29T00:59:47.792Z,4.05
2022-12-29T01:02:17.072Z,4.12
2022-12-29T01:04:48.072Z,3.17
2022-12-29T01:07:17.252Z,4.20
2022-12-29T01:10:04.717Z,3.87
2022-12-29T01:12:46.272Z,3.53
2022-12-29T01:15:16.195Z,3.40
2022-12-29T01:17:44.555Z,2.70
2022-12-29T01:20:15.588Z,2.53
2022-12-29T01:22:45.005Z,2.65
2022-12-29T01:25:13.878Z,2.90
2022-12-29T01:27:42.005Z,3.05
2022-12-29T01:30:10.377Z,2.20
2022-12-29T01:32:38.650Z,2.50
2022-12-29T01:35:06.846Z,2.30
2022-12-29T01:37:36.208Z,2.35
2022-12-29T01:40:07.764Z,2.33
2022-12-29T01:42:35.705Z,2.30
2022-12-29T01:45:23.770Z,1.80
2022-12-29T01:47:58.524Z,3.05
2022-12-29T01:50:41.323Z,2.22
2022-12-29T01:53:18.536Z,2.00
2022-12-29T01:55:53.404Z,2.00
2022-12-29T01:58:25.551Z,2.90
2022-12-29T02:00:53.552Z,3.00
2022-12-29T02:03:24.468Z,2.25
2022-12-29T02:06:03.900Z,2.20
2022-12-29T02:08:32.247Z,1.87
2022-12-29T02:11:04.534Z,2.97
2022-12-29T02:13:35.614Z,2.33
2022-12-29T02:16:15.620Z,2.20
2022-12-29T02:19:00.341Z,2.17
2022-12-29T02:21:46.831Z,1.70
2022-12-29T02:24:46.521Z,2.12
2022-12-29T02:27:24.190Z,2.85
2022-12-29T02:30:33.750Z,2.53
2022-12-29T02:33:04.761Z,4.22
2022-12-29T02:35:50.440Z,2.72
2022-12-29T02:38:37.328Z,2.60
2022-12-29T02:41:06.019Z,2.65
2022-12-29T02:43:45.576Z,3.25
2022-12-29T02:46:35.491Z,2.72
2022-12-29T02:49:27.581Z,2.40
2022-12-29T02:52:04.916Z,2.03
2022-12-29T02:54:42.202Z,1.73
2022-12-29T02:57:21.715Z,2.72
2022-12-29T03:00:12.454Z,2.42
2022-12-29T03:03:08.218Z,2.10
2022-12-29T03:05:46.331Z,2.47
2022-12-29T03:08:57.447Z,1.95
2022-12-29T03:11:52.569Z,2.05
2022-12-29T03:15:30.229Z,2.55
2022-12-29T03:18:07.827Z,2.60
2022-12-29T03:20:48.380Z,2.22
2022-12-29T03:23:18.017Z,2.58
2022-12-29T03:25:52.311Z,2.22
2022-12-29T03:28:29.084Z,2.30
2022-12-29T03:31:01.234Z,1.62
2022-12-29T03:33:34.015Z,2.85
2022-12-29T03:39:03.417Z,2.90
2022-12-29T03:41:35.902Z,2.65
2022-12-29T03:44:06.671Z,2.75
2022-12-29T03:46:35.302Z,2.35
2022-12-29T03:49:03.919Z,2.10
2022-12-29T03:51:31.875Z,2.53
2022-12-29T03:54:00.144Z,2.25
2022-12-29T03:56:28.410Z,3.95
2022-12-29T03:58:56.254Z,3.12
2022-12-29T04:01:25.536Z,3.42
2022-12-29T04:03:56.958Z,3.72
2022-12-29T04:06:25.015Z,4.10
2022-12-29T04:08:54.213Z,3.97
2022-12-29T04:11:25.180Z,3.42
2022-12-29T04:13:58.392Z,4.62
2022-12-29T04:16:26.654Z,2.83
2022-12-29T04:18:54.621Z,3.35
2022-12-29T04:21:24.097Z,2.78
2022-12-29T04:23:52.155Z,2.55
2022-12-29T04:26:20.166Z,3.20
2022-12-29T04:28:52.471Z,2.87
2022-12-29T04:31:22.911Z,2.20
2022-12-29T04:33:51.387Z,2.40
2022-12-29T04:36:19.261Z,2.17
2022-12-29T04:38:50.044Z,1.62
2022-12-29T04:41:18.085Z,2.25
2022-12-29T04:43:46.203Z,2.12
2022-12-29T04:46:14.899Z,2.92
2022-12-29T04:48:43.680Z,2.85
2022-12-29T04:51:11.743Z,2.70
2022-12-29T04:53:40.172Z,2.60
2022-12-29T04:56:10.433Z,2.22
2022-12-29T04:58:41.189Z,2.60
2022-12-29T05:01:09.457Z,2.85
2022-12-29T05:03:37.381Z,2.60
2022-12-29T05:06:05.900Z,2.92
2022-12-29T05:08:33.983Z,2.80
2022-12-29T05:11:02.011Z,2.35
2022-12-29T05:13:29.889Z,2.45
2022-12-29T05:15:58.467Z,2.55
2022-12-29T05:18:26.361Z,2.65
2022-12-29T05:20:55.061Z,2.75
2022-12-29T05:23:24.542Z,2.47
2022-12-29T05:25:52.857Z,3.33
2022-12-29T05:28:20.931Z,2.60
2022-12-29T05:30:51.440Z,2.95
2022-12-29T05:33:20.460Z,2.92
2022-12-29T05:35:51.444Z,2.78
2022-12-29T05:38:19.936Z,4.20
2022-12-29T05:40:47.764Z,4.12
2022-12-29T05:43:16.330Z,2.22
2022-12-29T05:45:45.252Z,4.57
2022-12-29T05:48:13.142Z,4.97
2022-12-29T05:50:41.083Z,3.70
2022-12-29T05:53:13.133Z,5.43
2022-12-29T05:55:46.616Z,4.82
2022-12-29T05:58:18.565Z,5.10
2022-12-29T06:00:46.810Z,3.85
2022-12-29T06:03:15.453Z,4.75
2022-12-29T06:05:47.488Z,3.55
2022-12-29T06:08:16.548Z,3.90
2022-12-29T06:10:47.118Z,3.60
2022-12-29T06:13:15.239Z,4.37
2022-12-29T06:15:44.429Z,4.28
2022-12-29T06:18:19.541Z,3.62
2022-12-29T06:20:49.054Z,3.12
2022-12-29T06:23:19.730Z,3.60
2022-12-29T06:25:50.638Z,4.47
2022-12-29T06:28:18.749Z,3.37
2022-12-29T06:30:47.170Z,4.30
2022-12-29T06:33:15.854Z,3.35
2022-12-29T06:35:47.128Z,3.17
2022-12-29T06:38:15.995Z,4.03
2022-12-29T06:40:46.332Z,2.53
2022-12-29T06:43:17.709Z,2.97
2022-12-29T06:45:45.797Z,3.25
2022-12-29T06:48:13.790Z,3.78
2022-12-29T06:50:42.382Z,3.22
2022-12-29T06:53:10.127Z,3.75
2022-12-29T06:55:38.509Z,4.05
2022-12-29T06:58:06.945Z,3.80
2022-12-29T07:00:34.799Z,3.15
2022-12-29T07:03:02.908Z,3.78
2022-12-29T07:05:33.917Z,3.45
2022-12-29T07:08:01.935Z,3.53
2022-12-29T07:10:29.812Z,3.47
2022-12-29T07:12:58.105Z,3.87
2022-12-29T07:15:26.024Z,4.30
2022-12-29T07:17:53.825Z,4.78
2022-12-29T07:20:26.759Z,3.55
2022-12-29T07:22:55.776Z,4.05
2022-12-29T07:25:26.944Z,3.67
2022-12-29T07:27:55.341Z,4.35
2022-12-29T07:30:23.262Z,3.67
2022-12-29T07:32:51.530Z,3.83
2022-12-29T07:35:19.374Z,4.37
2022-12-29T07:37:47.528Z,3.53
2022-12-29T07:40:15.850Z,3.85
2022-12-29T07:42:43.748Z,3.80
2022-12-29T07:47:50.558Z,4.10
2022-12-29T07:50:18.877Z,2.92
2022-12-29T07:52:48.287Z,4.53
2022-12-29T07:55:18.518Z,3.85
2022-12-29T07:57:46.449Z,3.20
2022-12-29T08:00:15.367Z,2.35
2022-12-29T08:02:43.663Z,3.60
2022-12-29T08:05:11.672Z,3.37
2022-12-29T08:07:39.597Z,4.00
2022-12-29T08:10:08.331Z,4.47
2022-12-29T08:12:36.085Z,3.75
2022-12-29T08:15:04.509Z,2.50
2022-12-29T08:17:32.669Z,3.60
2022-12-29T08:20:00.545Z,2.80
2022-12-29T08:22:31.188Z,3.55
2022-12-29T08:24:59.455Z,3.33
2022-12-29T08:27:27.563Z,3.45
2022-12-29T08:29:55.507Z,3.67
2022-12-29T08:32:23.860Z,3.03
2022-12-29T08:34:52.043Z,3.17
2022-12-29T08:37:19.835Z,2.58
2022-12-29T08:39:47.983Z,3.10
2022-12-29T08:42:15.845Z,2.95
2022-12-29T08:44:43.851Z,3.83
2022-12-29T08:47:13.015Z,3.22
2022-12-29T08:49:43.983Z,3.22
2022-12-29T08:52:12.213Z,3.40
2022-12-29T08:54:40.465Z,3.35
2022-12-29T08:57:08.600Z,2.85
2022-12-29T08:59:37.236Z,3.60
2022-12-29T09:02:05.220Z,3.08
2022-12-29T09:04:33.401Z,3.33
2022-12-29T09:07:01.593Z,3.03
2022-12-29T09:09:29.308Z,3.15
2022-12-29T09:11:57.107Z,2.50
2022-12-29T09:14:25.410Z,3.05
2022-12-29T09:17:11.834Z,2.85
2022-12-29T09:19:40.139Z,2.15
2022-12-29T09:22:07.905Z,3.05
2022-12-29T09:24:35.622Z,2.65
2022-12-29T09:27:03.722Z,2.35
2022-12-29T09:29:31.431Z,1.85
2022-12-29T09:31:59.141Z,2.30
2022-12-29T09:34:27.498Z,2.80
2022-12-29T09:36:57.467Z,3.00
2022-12-29T09:39:25.328Z,3.30
2022-12-29T09:42:26.174Z,3.30
2022-12-29T09:45:29.560Z,2.92
2022-12-29T09:47:57.656Z,2.87
2022-12-29T09:50:31.477Z,4.68
2022-12-29T09:53:09.210Z,4.20
2022-12-29T09:56:00.112Z,3.25
2022-12-29T09:58:42.034Z,3.37
2022-12-29T10:01:30.294Z,2.35
2022-12-29T10:04:06.630Z,2.28
2022-12-29T10:07:27.971Z,2.12
2022-12-29T10:09:53.158Z,2.50
2022-12-29T10:12:47.035Z,1.77
2022-12-29T10:15:35.360Z,2.47
2022-12-29T10:18:21.471Z,2.58
2022-12-29T10:21:06.303Z,1.92
2022-12-29T10:23:40.599Z,2.50
2022-12-29T10:26:19.186Z,2.28
2022-12-29T10:28:54.098Z,2.35
2022-12-29T10:31:36.154Z,1.95
2022-12-29T10:34:16.499Z,2.42
2022-12-29T10:36:50.071Z,1.73
2022-12-29T10:39:49.579Z,2.83
2022-12-29T10:42:41.871Z,2.70
2022-12-29T10:45:16.870Z,2.30
2022-12-29T10:48:13.401Z,2.03
2022-12-29T10:50:44.294Z,2.25
2022-12-29T10:53:21.862Z,2.08
2022-12-29T10:55:51.734Z,2.30
2022-12-29T10:58:21.118Z,2.10
2022-12-29T11:00:54.989Z,2.00
2022-12-29T11:03:36.523Z,2.53
2022-12-29T11:06:12.646Z,2.62
2022-12-29T11:08:49.714Z,3.17
2022-12-29T11:11:27.925Z,2.90
2022-12-29T11:14:12.739Z,3.03
2022-12-29T11:16:42.932Z,2.78
2022-12-29T11:19:23.443Z,2.85
2022-12-29T11:21:51.839Z,2.85
2022-12-29T11:24:24.364Z,5.45
2022-12-29T11:26:58.919Z,5.25
2022-12-29T11:29:39.329Z,5.87
2022-12-29T11:32:29.542Z,5.65
2022-12-29T11:35:00.078Z,4.95
2022-12-29T11:37:40.953Z,2.53
2022-12-29T11:40:20.522Z,2.95
2022-12-29T11:42:57.219Z,2.42
2022-12-29T11:45:35.468Z,3.05
2022-12-29T11:48:10.937Z,2.65
2022-12-29T11:50:41.815Z,2.80
2022-12-29T11:53:37.246Z,2.92
2022-12-29T11:56:18.896Z,2.03
2022-12-29T11:58:51.153Z,3.03
2022-12-29T12:01:37.792Z,2.50
2022-12-29T12:04:21.399Z,3.35
2022-12-29T12:07:36.677Z,2.97
2022-12-29T12:10:08.044Z,3.22
2022-12-29T12:12:43.357Z,3.42
2022-12-29T12:15:23.484Z,3.05
2022-12-29T12:18:03.641Z,4.10
2022-12-29T12:20:45.945Z,2.53
2022-12-29T12:23:43.519Z,2.95
2022-12-29T12:26:20.072Z,2.72
2022-12-29T12:28:57.340Z,3.40
2022-12-29T12:32:07.171Z,2.65
2022-12-29T12:34:40.845Z,3.42
2022-12-29T12:37:34.906Z,3.20
2022-12-29T12:40:27.988Z,3.25
2022-12-29T12:43:11.815Z,3.53
2022-12-29T12:48:30.228Z,6.07
2022-12-29T12:51:16.176Z,6.70
2022-12-29T12:54:14.075Z,4.87
2022-12-29T12:57:14.546Z,6.20
2022-12-29T13:00:01.938Z,4.80
2022-12-29T13:02:40.294Z,4.55
2022-12-29T13:05:36.417Z,4.75
2022-12-29T13:08:19.231Z,3.12
2022-12-29T13:13:48.887Z,5.85
2022-12-29T13:16:33.769Z,5.28
2022-12-29T13:19:12.883Z,5.30
2022-12-29T13:21:46.447Z,6.22
2022-12-29T13:27:15.028Z,5.82
2022-12-29T13:30:01.121Z,4.78
2022-12-29T13:32:43.982Z,4.20
2022-12-29T13:35:28.583Z,5.47
2022-12-29T13:38:04.922Z,4.68
2022-12-29T13:40:40.406Z,5.72
2022-12-29T13:43:09.739Z,5.37
2022-12-29T13:45:38.383Z,5.95
2022-12-29T13:48:18.893Z,5.68
2022-12-29T13:50:53.477Z,4.40
2022-12-29T13:53:35.714Z,4.03
2022-12-29T13:56:22.253Z,6.05
2022-12-29T13:58:59.064Z,5.60
2022-12-29T14:01:33.781Z,5.07
2022-12-29T14:04:09.767Z,4.80
2022-12-29T14:06:44.283Z,4.72
2022-12-29T14:09:37.275Z,4.03
2022-12-29T14:12:32.498Z,6.03
2022-12-29T14:15:12.615Z,5.53
2022-12-29T14:17:45.299Z,5.68
2022-12-29T14:20:24.362Z,8.48
2022-12-29T14:23:01.244Z,7.72
2022-12-29T14:26:01.517Z,9.55
2022-12-29T14:28:31.758Z,8.65
2022-12-29T14:31:02.632Z,8.60
2022-12-29T14:33:35.885Z,9.05
2022-12-29T14:36:26.763Z,8.32
2022-12-29T14:38:54.696Z,6.15
2022-12-29T14:41:31.876Z,7.25
2022-12-29T14:44:16.480Z,5.72
2022-12-29T14:46:47.217Z,5.90
2022-12-29T14:49:24.630Z,4.78
2022-12-29T14:51:55.303Z,4.68
2022-12-29T14:54:38.280Z,5.70
2022-12-29T14:57:09.620Z,5.28
2022-12-29T14:59:40.823Z,4.70
2022-12-29T15:02:20.979Z,5.28
2022-12-29T15:04:49.866Z,5.68
2022-12-29T15:07:21.066Z,5.43
2022-12-29T15:10:14.991Z,5.93
2022-12-29T15:12:53.165Z,6.37
2022-12-29T15:15:27.257Z,8.25
2022-12-29T15:17:55.653Z,6.10
2022-12-29T15:20:33.288Z,6.55
2022-12-29T15:23:12.455Z,5.47
2022-12-29T15:25:55.885Z,6.20
2022-12-29T15:28:25.197Z,6.57
2022-12-29T15:30:58.442Z,6.12
2022-12-29T15:33:29.261Z,6.47
2022-12-29T15:35:58.892Z,7.12
2022-12-29T15:38:37.133Z,6.20
2022-12-29T15:41:25.804Z,5.95
2022-12-29T15:44:32.234Z,6.03
2022-12-29T15:47:13.268Z,7.15
2022-12-29T15:49:44.416Z,8.43
2022-12-29T15:52:18.415Z,8.73
2022-12-29T15:54:49.331Z,9.68
2022-12-29T15:57:24.458Z,8.02
2022-12-29T15:59:53.434Z,10.98
2022-12-29T16:02:24.007Z,12.18
2022-12-29T16:05:16.677Z,11.52
2022-12-29T16:07:54.348Z,11.20
2022-12-29T16:10:34.812Z,11.38
2022-12-29T16:13:24.272Z,11.98
2022-12-29T16:16:09.338Z,10.68
2022-12-29T16:18:38.918Z,11.07
2022-12-29T16:21:19.556Z,9.30
2022-12-29T16:23:52.032Z,10.57
2022-12-29T16:28:53.031Z,11.20
2022-12-29T16:32:01.945Z,11.02
2022-12-29T16:34:44.442Z,9.60
2022-12-29T16:37:32.454Z,8.32
2022-12-29T16:40:28.876Z,9.20
2022-12-29T16:43:02.655Z,11.10
2022-12-29T16:45:45.869Z,10.60
2022-12-29T16:48:16.939Z,9.05
2022-12-29T16:50:46.529Z,11.30
2022-12-29T16:53:29.740Z,9.15
2022-12-29T16:56:03.037Z,7.62
2022-12-29T16:58:33.000Z,5.75
2022-12-29T17:01:04.071Z,10.68
2022-12-29T17:03:46.041Z,7.25
2022-12-29T17:06:22.981Z,7.85
2022-12-29T17:08:52.537Z,6.62
2022-12-29T17:11:43.552Z,6.53
2022-12-29T17:14:34.197Z,7.37
2022-12-29T17:17:02.457Z,5.60
2022-12-29T17:19:39.061Z,6.37
2022-12-29T17:22:23.071Z,6.32
2022-12-29T17:24:51.531Z,6.25
2022-12-29T17:27:26.063Z,5.90
2022-12-29T17:29:58.775Z,4.97
2022-12-29T17:32:26.829Z,6.32
2022-12-29T17:34:55.234Z,6.28
2022-12-29T17:37:29.378Z,5.90
2022-12-29T17:39:57.624Z,5.15
2022-12-29T17:42:25.927Z,5.60
2022-12-29T17:44:53.983Z,6.62
2022-12-29T17:47:22.268Z,5.05
2022-12-29T17:49:50.245Z,6.25
2022-12-29T17:52:18.383Z,6.50
2022-12-29T17:54:50.471Z,5.05
2022-12-29T17:57:20.109Z,5.78
2022-12-29T17:59:48.449Z,6.00
2022-12-29T18:02:32.966Z,5.62
2022-12-29T18:05:01.434Z,4.07
2022-12-29T18:07:36.008Z,6.97
2022-12-29T18:10:04.830Z,6.53
2022-12-29T18:12:41.983Z,6.43
2022-12-29T18:15:21.230Z,6.35
2022-12-29T18:17:50.073Z,5.78
2022-12-29T18:20:18.315Z,6.35
2022-12-29T18:22:46.051Z,5.68
2022-12-29T18:25:52.567Z,5.68
2022-12-29T18:28:21.123Z,5.65
2022-12-29T18:30:49.151Z,5.95
2022-12-29T18:33:23.392Z,6.72
2022-12-29T18:36:05.515Z,5.50
2022-12-29T18:38:33.338Z,3.65
2022-12-29T18:41:04.895Z,6.43
2022-12-29T18:43:32.800Z,5.55
2022-12-29T18:46:01.274Z,5.57
2022-12-29T18:48:29.600Z,7.28
2022-12-29T18:50:57.418Z,5.82
2022-12-29T18:53:26.069Z,5.43
2022-12-29T18:55:54.558Z,5.10
2022-12-29T18:58:22.466Z,5.53
2022-12-29T19:00:51.418Z,5.15
2022-12-29T19:03:19.665Z,5.75
2022-12-29T19:05:49.359Z,6.72
2022-12-29T19:08:17.451Z,5.87
2022-12-29T19:10:46.244Z,5.18
2022-12-29T19:13:19.777Z,4.90
2022-12-29T19:15:48.326Z,5.85
2022-12-29T19:21:12.917Z,5.45
2022-12-29T19:23:44.342Z,5.40
2022-12-29T19:26:34.859Z,5.32
2022-12-29T19:29:03.027Z,5.37
2022-12-29T19:31:31.298Z,5.65
2022-12-29T19:33:59.059Z,4.62
2022-12-29T19:36:26.999Z,5.53
2022-12-29T19:38:56.202Z,5.20
2022-12-29T19:41:24.121Z,4.78
2022-12-29T19:43:52.000Z,5.35
2022-12-29T19:46:20.892Z,4.50
2022-12-29T19:48:48.746Z,5.32
2022-12-29T19:51:17.522Z,6.78
2022-12-29T19:53:46.647Z,7.05
2022-12-29T19:56:15.630Z,6.90
2022-12-29T19:58:47.192Z,6.60
2022-12-29T20:01:23.161Z,5.50
2022-12-29T20:03:52.515Z,4.65
2022-12-29T20:06:20.603Z,5.75
2022-12-29T20:08:51.751Z,4.87
2022-12-29T20:11:20.282Z,5.00
2022-12-29T20:13:48.767Z,5.90
2022-12-29T20:16:18.986Z,5.87
2022-12-29T20:18:48.452Z,5.93
2022-12-29T20:21:21.857Z,6.82
2022-12-29T20:23:53.118Z,5.85
2022-12-29T20:26:29.473Z,5.18
2022-12-29T20:28:58.951Z,4.57
2022-12-29T20:31:31.719Z,5.20
2022-12-29T20:34:00.170Z,6.28
2022-12-29T20:36:31.544Z,6.68
2022-12-29T20:39:02.036Z,6.95
2022-12-29T20:41:31.476Z,5.93
2022-12-29T20:43:59.748Z,6.10
2022-12-29T20:46:34.060Z,8.00
2022-12-29T20:49:11.469Z,7.22
2022-12-29T20:52:05.226Z,6.60
2022-12-29T20:54:29.934Z,5.93
2022-12-29T20:57:00.265Z,7.68
2022-12-29T20:59:29.166Z,5.37
2022-12-29T21:01:58.630Z,6.12
2022-12-29T21:04:27.031Z,6.78
2022-12-29T21:06:55.760Z,6.60
2022-12-29T21:09:24.107Z,5.62
2022-12-29T21:11:52.228Z,6.32
2022-12-29T21:14:20.513Z,5.80
2022-12-29T21:16:50.770Z,6.12
2022-12-29T21:19:18.684Z,6.43
2022-12-29T21:21:46.837Z,7.07
2022-12-29T21:24:14.662Z,5.93
2022-12-29T21:26:43.276Z,5.68
2022-12-29T21:29:11.633Z,5.12
2022-12-29T21:31:39.485Z,7.68
2022-12-29T21:34:07.618Z,5.57
2022-12-29T21:36:36.298Z,6.97
2022-12-29T21:39:04.898Z,7.43
2022-12-29T21:41:33.708Z,6.95
2022-12-29T21:44:20.739Z,6.78
2022-12-29T21:46:48.483Z,4.62
2022-12-29T21:49:16.770Z,5.05
2022-12-29T21:51:50.661Z,6.90
2022-12-29T21:54:43.744Z,6.25
2022-12-29T21:57:38.661Z,5.30
2022-12-29T22:00:28.136Z,6.53
2022-12-29T22:03:23.064Z,8.07
2022-12-29T22:06:11.312Z,6.82
2022-12-29T22:08:59.254Z,3.95
2022-12-29T22:11:45.839Z,7.05
2022-12-29T22:14:13.915Z,5.95
2022-12-29T22:16:41.795Z,6.82
2022-12-29T22:19:12.357Z,7.22
2022-12-29T22:21:40.618Z,6.62
2022-12-29T22:24:09.100Z,6.20
2022-12-29T22:26:36.938Z,7.25
2022-12-29T22:29:05.049Z,4.35
2022-12-29T22:31:33.471Z,5.95
2022-12-29T22:34:03.581Z,6.15
2022-12-29T22:36:32.643Z,6.30
2022-12-29T22:39:01.420Z,6.10
2022-12-29T22:41:29.337Z,5.57
2022-12-29T22:43:57.534Z,7.10
2022-12-29T22:46:25.492Z,5.40
2022-12-29T22:48:53.506Z,4.65
2022-12-29T22:51:21.553Z,6.20
2022-12-29T22:53:50.264Z,6.30
2022-12-29T22:56:18.610Z,6.70
2022-12-29T22:58:48.758Z,5.87
2022-12-29T23:01:22.331Z,5.03
2022-12-29T23:04:01.071Z,6.68
2022-12-29T23:06:41.714Z,6.50
2022-12-29T23:09:18.922Z,5.07
2022-12-29T23:11:50.135Z,6.87
2022-12-29T23:14:18.315Z,6.53
2022-12-29T23:16:46.673Z,6.53
2022-12-29T23:19:14.589Z,6.25
2022-12-29T23:21:42.672Z,7.53
2022-12-29T23:24:14.555Z,7.05
2022-12-29T23:26:45.626Z,6.30
2022-12-29T23:29:16.040Z,5.40
2022-12-29T23:31:44.949Z,5.70
2022-12-29T23:34:17.487Z,7.03
2022-12-29T23:39:23.611Z,7.28
2022-12-29T23:41:52.823Z,6.72
2022-12-29T23:44:20.643Z,6.57
2022-12-29T23:46:48.733Z,5.05
2022-12-29T23:49:17.087Z,6.97
2022-12-29T23:51:44.988Z,7.32
2022-12-29T23:54:12.849Z,8.45
2022-12-29T23:56:41.066Z,8.20
2022-12-29T23:59:08.921Z,6.90
